Time;durP1;ratioP1;P1;durP2;ratioP2;P2;SDS_P1;SDS_P2;PMS_P1;PMS_P2;Temp;Humidity;BMP_temperature;BMP_pressure;BME280_temperature;BME280_humidity;BME280_pressure;Samples;Min_cycle;Max_cycle;Signal;HPM_P1;HPM_P2
2021/06/02 00:00:17;;;;;;;16.70;6.33;;;;;;;14.86;65.26;100507.08;125984;1096;25889;-60
2021/06/02 00:03:09;;;;;;;14.03;5.43;;;;;;;14.81;64.97;100514.23;125946;1096;22761;-58
2021/06/02 00:05:40;;;;;;;19.80;5.00;;;;;;;14.79;65.24;100505.53;125823;1096;26245;-59
2021/06/02 00:08:12;;;;;;;16.25;6.50;;;;;;;14.77;65.47;100504.48;126217;1101;23339;-58
2021/06/02 00:10:43;;;;;;;14.57;5.43;;;;;;;14.75;65.76;100510.61;126108;1101;22734;-58
2021/06/02 00:13:15;;;;;;;15.90;5.85;;;;;;;14.73;65.49;100504.72;126150;1101;22726;-58
2021/06/02 00:15:47;;;;;;;15.45;5.85;;;;;;;14.71;65.71;100506.48;126126;1101;22826;-58
2021/06/02 00:18:18;;;;;;;20.87;6.70;;;;;;;14.71;65.59;100498.80;125925;1104;22761;-58
2021/06/02 00:20:49;;;;;;;15.20;5.65;;;;;;;14.72;65.33;100494.73;126049;1101;24387;-59
2021/06/02 00:23:19;;;;;;;16.75;5.05;;;;;;;14.71;65.44;100498.80;126056;1101;22762;-60
2021/06/02 00:25:49;;;;;;;16.57;5.27;;;;;;;14.72;65.07;100499.59;126206;1101;22737;-60
2021/06/02 00:28:19;;;;;;;14.23;5.23;;;;;;;14.72;65.27;100497.55;126192;1101;22704;-61
2021/06/02 00:30:48;;;;;;;;;;;;;;;14.69;65.27;100494.98;126163;1101;22734;-59
2021/06/02 00:33:18;;;;;;;14.25;4.65;;;;;;;14.64;65.18;100496.48;126161;1101;21461;-58
2021/06/02 00:35:50;;;;;;;16.60;5.35;;;;;;;14.63;64.94;100494.18;126137;1101;22755;-57
2021/06/02 00:38:20;;;;;;;16.80;5.13;;;;;;;14.62;65.08;100496.22;126265;1096;25822;-62
2021/06/02 00:40:52;;;;;;;15.48;5.65;;;;;;;14.61;65.07;100499.53;126173;1101;22759;-62
2021/06/02 00:43:23;;;;;;;15.20;6.60;;;;;;;14.58;65.08;100498.48;126030;1101;22765;-58
2021/06/02 00:45:54;;;;;;;12.30;5.20;;;;;;;14.55;65.82;100496.66;126296;1101;22751;-60
2021/06/02 00:48:24;;;;;;;16.65;5.90;;;;;;;14.51;64.99;100502.52;126299;1097;22734;-60
2021/06/02 00:50:54;;;;;;;14.20;6.17;;;;;;;14.48;65.10;100502.77;126218;1097;26850;-59
2021/06/02 00:53:23;;;;;;;;;;;;;;;14.46;65.12;100511.66;126328;1101;22765;-57
2021/06/02 00:56:01;;;;;;;15.20;5.20;;;;;;;14.44;65.00;100505.03;126910;1101;21467;-61
2021/06/02 00:58:37;;;;;;;14.37;5.30;;;;;;;14.41;65.06;100503.20;127221;1101;22750;-61
2021/06/02 01:01:09;;;;;;;15.10;5.95;;;;;;;14.39;65.55;100503.71;127286;1096;25864;-61
2021/06/02 01:03:43;;;;;;;17.25;5.85;;;;;;;14.37;65.03;100499.86;126559;1096;22741;-54
2021/06/02 01:06:14;;;;;;;19.10;6.80;;;;;;;14.36;65.01;100501.14;126383;1097;22741;-58
2021/06/02 01:08:46;;;;;;;18.40;5.45;;;;;;;14.34;65.40;100504.42;126273;1101;22795;-58
2021/06/02 01:11:17;;;;;;;15.75;5.90;;;;;;;14.35;65.04;100513.63;126390;1101;23093;-61
2021/06/02 01:13:47;;;;;;;15.70;6.00;;;;;;;14.33;64.96;100508.52;126128;1095;26601;-60
2021/06/02 01:16:18;;;;;;;17.93;6.73;;;;;;;14.32;65.29;100514.61;126185;1096;25697;-57
2021/06/02 01:18:49;;;;;;;14.05;5.70;;;;;;;14.30;65.00;100506.69;126178;1097;22741;-58
2021/06/02 01:21:22;;;;;;;14.23;5.30;;;;;;;14.29;65.02;100515.63;126050;1096;22761;-58
2021/06/02 01:23:59;;;;;;;16.20;5.37;;;;;;;14.27;65.22;100512.52;126203;1101;22826;-58
2021/06/02 01:26:31;;;;;;;16.20;6.00;;;;;;;14.26;65.03;100522.97;126395;1101;24799;-68
2021/06/02 01:29:01;;;;;;;17.85;6.40;;;;;;;14.25;65.41;100524.25;126278;1101;22768;-58
2021/06/02 01:32:02;;;;;;;16.70;5.57;;;;;;;14.24;65.26;100524.73;126081;1101;22775;-58
2021/06/02 01:34:56;;;;;;;17.60;6.00;;;;;;;14.23;64.94;100515.56;126163;1101;22762;-57
2021/06/02 01:37:47;;;;;;;17.45;5.90;;;;;;;14.23;65.26;100523.98;126069;1101;23291;-60
2021/06/02 01:40:34;;;;;;;16.10;5.50;;;;;;;14.20;65.08;100530.58;126270;1101;24508;-59
2021/06/02 01:43:27;;;;;;;16.45;5.80;;;;;;;14.20;65.13;100529.80;126001;1101;22743;-59
2021/06/02 01:46:22;;;;;;;15.90;5.50;;;;;;;14.19;65.24;100537.48;126234;1096;24315;-60
2021/06/02 01:49:12;;;;;;;16.33;5.40;;;;;;;14.15;65.16;100539.71;126243;1101;22761;-58
2021/06/02 01:52:23;;;;;;;16.40;5.10;;;;;;;14.16;65.32;100537.68;126066;1096;26401;-59
2021/06/02 01:55:21;;;;;;;20.40;6.20;;;;;;;14.15;65.16;100545.33;126264;1097;22754;-59
2021/06/02 01:58:12;;;;;;;12.95;5.55;;;;;;;14.15;64.88;100542.52;126152;1101;22760;-56
2021/06/02 02:00:55;;;;;;;14.97;5.50;;;;;;;14.14;65.00;100546.61;126094;1101;22764;-60
2021/06/02 02:04:14;;;;;;;16.40;6.15;;;;;;;14.13;64.86;100553.47;126165;1097;25909;-60
2021/06/02 02:07:17;;;;;;;15.30;5.70;;;;;;;14.12;64.94;100553.98;126091;1101;22740;-58
2021/06/02 02:10:06;;;;;;;16.43;5.73;;;;;;;14.11;64.94;100558.07;125939;1101;22744;-59
2021/06/02 02:12:54;;;;;;;14.03;5.00;;;;;;;14.10;64.94;100554.48;126020;1096;22764;-59
2021/06/02 02:15:35;;;;;;;15.00;6.00;;;;;;;14.11;65.01;100560.88;126243;1097;25818;-59
2021/06/02 02:18:30;;;;;;;15.35;4.85;;;;;;;14.10;65.31;100553.70;126295;1101;22700;-59
2021/06/02 02:21:11;;;;;;;18.77;5.03;;;;;;;14.10;65.07;100559.32;126003;1101;22742;-60
2021/06/02 02:23:46;;;;;;;12.10;4.50;;;;;;;14.09;65.01;100561.34;126142;1097;22719;-59
2021/06/02 02:26:35;;;;;;;16.55;5.10;;;;;;;14.09;65.16;100560.60;126117;1097;24565;-62
2021/06/02 02:29:23;;;;;;;14.73;4.80;;;;;;;14.07;65.52;100561.08;126191;1101;22735;-59
2021/06/02 02:32:12;;;;;;;13.65;5.10;;;;;;;14.09;65.02;100560.60;126146;1101;22758;-56
2021/06/02 02:35:13;;;;;;;14.50;4.93;;;;;;;14.07;65.17;100566.69;126362;1101;22734;-59
2021/06/02 02:37:48;;;;;;;16.80;5.13;;;;;;;14.06;65.22;100567.19;126107;1101;22719;-59
2021/06/02 02:40:26;;;;;;;16.15;5.35;;;;;;;14.06;65.48;100573.59;126040;1101;22929;-62
2021/06/02 02:43:06;;;;;;;12.50;4.50;;;;;;;14.06;65.19;100578.42;126231;1101;22799;-62
2021/06/02 02:45:37;;;;;;;;;;;;;;;14.05;65.59;100574.09;125926;1101;22719;-59
2021/06/02 02:48:16;;;;;;;16.58;6.13;;;;;;;14.01;65.31;100579.16;125982;1097;24752;-58
2021/06/02 02:51:02;;;;;;;12.18;4.90;;;;;;;13.98;65.56;100577.32;125837;1101;22750;-59
2021/06/02 02:53:44;;;;;;;13.35;5.95;;;;;;;13.98;65.66;100577.32;125942;1102;22723;-61
2021/06/02 02:56:22;;;;;;;14.65;5.35;;;;;;;13.98;65.40;100582.94;125974;1097;24437;-57
2021/06/02 02:59:06;;;;;;;13.53;4.73;;;;;;;13.98;65.20;100582.94;126280;1101;22812;-59
2021/06/02 03:01:45;;;;;;;14.90;5.30;;;;;;;13.99;65.37;100582.44;126224;1101;22779;-60
2021/06/02 03:04:21;;;;;;;17.60;6.15;;;;;;;13.97;65.52;100584.97;126250;1101;22762;-59
2021/06/02 03:06:56;;;;;;;15.85;5.70;;;;;;;13.99;65.83;100587.30;126192;1101;22816;-59
2021/06/02 03:09:35;;;;;;;16.05;5.60;;;;;;;13.98;65.57;100582.94;126300;1096;25430;-59
2021/06/02 03:12:18;;;;;;;15.83;5.90;;;;;;;13.98;65.78;100582.94;125998;1101;22772;-60
2021/06/02 03:14:56;;;;;;;16.30;6.00;;;;;;;13.98;66.24;100585.74;126061;1101;22768;-57
2021/06/02 03:17:33;;;;;;;12.20;5.50;;;;;;;13.96;66.32;100591.86;126175;1101;22729;-56
2021/06/02 03:20:15;;;;;;;16.87;5.80;;;;;;;13.95;66.27;100589.52;126259;1097;27163;-58
2021/06/02 03:23:23;;;;;;;15.08;5.78;;;;;;;13.94;66.68;100588.77;126166;1101;24533;-58
2021/06/02 03:26:03;;;;;;;19.53;6.40;;;;;;;13.93;66.69;100600.47;126138;1101;22755;-58
2021/06/02 03:28:42;;;;;;;;;;;;;;;13.90;66.48;100595.86;126258;1097;25864;-59
2021/06/02 03:31:25;;;;;;;14.10;5.90;;;;;;;13.88;66.75;100595.59;126229;1101;21518;-58
2021/06/02 03:34:22;;;;;;;15.55;6.00;;;;;;;13.87;66.79;100599.64;126251;1101;22784;-59
2021/06/02 03:37:05;;;;;;;17.15;6.95;;;;;;;13.86;66.74;100606.53;126200;1097;27358;-56
2021/06/02 03:39:49;;;;;;;18.85;7.80;;;;;;;13.86;66.78;100612.92;126161;1101;22816;-58
2021/06/02 03:42:32;;;;;;;19.65;7.65;;;;;;;13.85;66.52;100613.40;126147;1101;22820;-57
2021/06/02 03:45:13;;;;;;;20.40;6.17;;;;;;;13.85;66.50;100599.36;126196;1101;22777;-58
2021/06/02 03:48:00;;;;;;;19.00;7.80;;;;;;;13.87;67.04;100602.45;126317;1097;26285;-58
2021/06/02 03:50:39;;;;;;;20.30;6.85;;;;;;;13.88;66.54;100607.59;126104;1101;22741;-58
2021/06/02 03:53:18;;;;;;;17.13;6.37;;;;;;;13.90;66.78;100616.29;126057;1101;22751;-61
2021/06/02 03:55:58;;;;;;;17.55;6.50;;;;;;;13.91;66.43;100612.20;125904;1102;22752;-58
2021/06/02 03:58:48;;;;;;;16.75;6.53;;;;;;;13.93;66.93;100611.70;126103;1101;22741;-58
2021/06/02 04:01:28;;;;;;;17.00;6.25;;;;;;;13.94;66.99;100622.45;125994;1101;22734;-61
2021/06/02 04:04:12;;;;;;;17.65;6.73;;;;;;;13.96;67.01;100616.34;126197;1096;26213;-60
2021/06/02 04:06:50;;;;;;;18.50;6.35;;;;;;;13.99;67.13;100624.54;125943;1101;22704;-61
2021/06/02 04:09:26;;;;;;;18.45;7.30;;;;;;;14.00;67.10;100617.67;126088;1101;22740;-58
2021/06/02 04:12:17;;;;;;;16.40;7.07;;;;;;;14.02;67.29;100619.98;125988;1101;22741;-58
2021/06/02 04:14:57;;;;;;;21.00;7.50;;;;;;;14.04;67.25;100628.68;126141;1096;27244;-59
2021/06/02 04:17:28;;;;;;;17.60;7.83;;;;;;;14.07;67.32;100633.31;127277;1101;22766;-60
2021/06/02 04:20:00;;;;;;;17.47;6.77;;;;;;;14.08;67.05;100634.84;126118;1101;23274;-61
2021/06/02 04:22:32;;;;;;;19.95;7.20;;;;;;;14.11;67.05;100634.63;126160;1097;22799;-57
2021/06/02 04:25:04;;;;;;;14.73;6.73;;;;;;;14.13;67.16;100639.77;126134;1101;22771;-60
2021/06/02 04:27:38;;;;;;;19.20;7.50;;;;;;;14.15;67.31;100640.04;126020;1102;22737;-60
2021/06/02 04:30:10;;;;;;;16.50;6.70;;;;;;;14.18;67.11;100644.66;125969;1102;22762;-58
2021/06/02 04:32:42;;;;;;;21.57;7.70;;;;;;;14.19;67.29;100641.38;126174;1097;22852;-58
2021/06/02 04:35:15;;;;;;;20.33;7.00;;;;;;;14.20;67.81;100651.33;126234;1101;23190;-58
2021/06/02 04:37:46;;;;;;;19.65;7.15;;;;;;;14.22;67.35;100645.20;126476;1101;22765;-58
2021/06/02 04:40:17;;;;;;;20.27;7.03;;;;;;;14.23;67.18;100657.99;126164;1101;22735;-58
2021/06/02 04:42:50;;;;;;;18.65;6.85;;;;;;;14.24;67.06;100653.91;126141;1101;22761;-58
2021/06/02 04:45:27;;;;;;;20.75;7.40;;;;;;;14.26;67.17;100660.58;126125;1101;22765;-57
2021/06/02 04:47:59;;;;;;;25.60;8.10;;;;;;;14.27;67.18;100661.35;125916;1101;22777;-59
2021/06/02 04:50:37;;;;;;;19.70;7.67;;;;;;;14.27;67.15;100662.13;126121;1101;22747;-58
2021/06/02 04:53:57;;;;;;;21.40;8.20;;;;;;;14.29;67.00;100656.05;126022;1101;22761;-61
2021/06/02 04:56:56;;;;;;;17.43;6.65;;;;;;;14.31;66.96;100664.74;126337;1100;22762;-61
2021/06/02 04:59:42;;;;;;;18.40;7.50;;;;;;;14.30;66.52;100669.58;126675;1104;22899;-61
2021/06/02 05:02:58;;;;;;;20.15;7.50;;;;;;;14.32;66.58;100675.48;126390;1101;22878;-60
2021/06/02 05:05:54;;;;;;;19.25;7.20;;;;;;;14.33;66.21;100677.03;125934;1104;22899;-57
2021/06/02 05:08:55;;;;;;;19.25;7.75;;;;;;;14.36;66.25;100686.52;125977;1104;22707;-60
2021/06/02 05:12:17;;;;;;;22.10;8.47;;;;;;;14.37;66.08;100685.23;125856;1100;26255;-58
2021/06/02 05:15:34;;;;;;;19.65;7.60;;;;;;;14.39;66.49;100672.24;125540;1100;27870;-60
2021/06/02 05:18:25;;;;;;;23.17;8.13;;;;;;;14.42;66.08;100685.28;125684;1107;22765;-57
2021/06/02 05:24:34;;;;;;;23.25;8.65;;;;;;;14.46;66.25;100688.64;125563;1100;27773;-60
2021/06/02 05:27:48;;;;;;;23.35;9.15;;;;;;;14.48;65.98;100690.98;125393;1107;23491;-63
2021/06/02 05:31:04;;;;;;;21.70;9.00;;;;;;;14.49;65.84;100696.09;125658;1101;27090;-61
2021/06/02 05:34:14;;;;;;;25.20;8.15;;;;;;;14.51;66.12;100699.17;125566;1107;22739;-59
2021/06/02 05:37:25;;;;;;;28.00;9.55;;;;;;;14.53;65.67;100699.45;125566;1107;22783;-61
2021/06/02 05:40:16;;;;;;;23.90;9.10;;;;;;;14.56;65.45;100708.94;125263;1107;22796;-58
2021/06/02 05:43:31;;;;;;;25.95;9.20;;;;;;;14.58;65.62;100700.78;125361;1108;22870;-56
2021/06/02 05:46:27;;;;;;;29.00;9.07;;;;;;;14.61;65.54;100710.27;125334;1108;22844;-56
2021/06/02 05:49:30;;;;;;;24.30;9.20;;;;;;;14.62;65.07;100706.95;125459;1103;22849;-57
2021/06/02 05:52:40;;;;;;;22.90;8.95;;;;;;;14.67;65.29;100719.52;125475;1101;26220;-58
2021/06/02 05:55:35;;;;;;;19.77;8.47;;;;;;;14.70;65.08;100713.67;125689;1108;22761;-58
2021/06/02 05:58:47;;;;;;;20.17;7.60;;;;;;;14.76;65.27;100714.49;125376;1108;23720;-60
2021/06/02 06:02:04;;;;;;;22.20;8.17;;;;;;;14.81;65.58;100716.59;124970;1111;22791;-60
2021/06/02 06:05:13;;;;;;;18.70;7.60;;;;;;;14.89;65.02;100714.88;124953;1106;23152;-59
2021/06/02 06:08:20;;;;;;;16.98;7.23;;;;;;;14.96;64.70;100720.03;124758;1114;22886;-61
2021/06/02 06:11:32;;;;;;;14.45;6.10;;;;;;;15.05;64.26;100721.91;124481;1117;22886;-57
2021/06/02 06:14:27;;;;;;;17.93;6.80;;;;;;;15.14;63.99;100727.36;124525;1117;23873;-57
2021/06/02 06:17:22;;;;;;;19.20;6.25;;;;;;;15.21;63.77;100729.70;124572;1115;22828;-58
2021/06/02 06:20:23;;;;;;;20.80;5.90;;;;;;;15.28;63.30;100738.47;124825;1109;22832;-61
2021/06/02 06:23:41;;;;;;;18.60;6.10;;;;;;;15.35;63.34;100735.19;124828;1115;22836;-61
2021/06/02 06:26:15;;;;;;;17.77;6.37;;;;;;;15.43;63.28;100729.14;125146;1109;26344;-58
2021/06/02 06:28:52;;;;;;;23.73;6.93;;;;;;;15.49;63.41;100739.17;124931;1110;24509;-59
2021/06/02 06:31:26;;;;;;;22.13;6.47;;;;;;;15.58;63.26;100730.52;125395;1114;22954;-60
2021/06/02 06:33:58;;;;;;;18.33;5.90;;;;;;;15.65;63.24;100729.28;125273;1111;22856;-60
2021/06/02 06:36:29;;;;;;;16.53;5.93;;;;;;;15.73;63.28;100730.34;125163;1111;22816;-62
2021/06/02 06:39:12;;;;;;;17.70;6.30;;;;;;;15.80;63.10;100736.30;125476;1110;22776;-58
2021/06/02 06:41:47;;;;;;;15.63;5.83;;;;;;;15.86;62.52;100736.31;125553;1102;27384;-60
2021/06/02 06:44:19;;;;;;;15.00;5.20;;;;;;;15.91;62.51;100739.15;125692;1102;22832;-58
2021/06/02 06:46:54;;;;;;;17.35;5.00;;;;;;;15.98;61.67;100735.09;125622;1108;22800;-61
2021/06/02 06:49:31;;;;;;;20.77;5.53;;;;;;;16.03;61.94;100734.36;125893;1104;22900;-58
2021/06/02 06:52:04;;;;;;;13.75;4.75;;;;;;;16.06;61.85;100739.75;125894;1097;22753;-59
2021/06/02 06:54:36;;;;;;;17.03;5.67;;;;;;;16.13;61.47;100730.83;125909;1096;22872;-58
2021/06/02 06:57:08;;;;;;;19.00;5.03;;;;;;;16.19;61.47;100740.07;126083;1096;22738;-59
2021/06/02 06:59:40;;;;;;;16.15;5.10;;;;;;;16.26;62.07;100741.64;125882;1101;22734;-59
2021/06/02 07:02:11;;;;;;;17.25;5.60;;;;;;;16.32;61.86;100742.42;125710;1101;22744;-59
2021/06/02 07:04:43;;;;;;;14.60;4.55;;;;;;;16.38;61.32;100748.07;125583;1096;22735;-58
2021/06/02 07:07:15;;;;;;;15.40;5.27;;;;;;;16.43;60.98;100742.45;126029;1101;22797;-59
2021/06/02 07:09:46;;;;;;;21.20;5.30;;;;;;;16.50;61.45;100747.63;125719;1096;22741;-59
2021/06/02 07:12:20;;;;;;;16.90;4.95;;;;;;;16.57;60.74;100749.97;126082;1096;26426;-59
2021/06/02 07:14:52;;;;;;;18.70;4.50;;;;;;;16.65;60.07;100747.42;126359;1096;22879;-60
2021/06/02 07:17:24;;;;;;;15.25;4.80;;;;;;;16.72;59.87;100756.14;126331;1101;23174;-59
2021/06/02 07:20:00;;;;;;;16.85;4.70;;;;;;;16.79;59.85;100754.88;126404;1101;22823;-60
2021/06/02 07:22:31;;;;;;;13.13;4.33;;;;;;;16.87;59.96;100753.87;126245;1096;25277;-59
2021/06/02 07:25:02;;;;;;;13.80;3.50;;;;;;;16.95;59.41;100752.08;126374;1101;23182;-60
2021/06/02 07:27:35;;;;;;;20.70;4.27;;;;;;;17.06;59.36;100754.15;126306;1101;23047;-61
2021/06/02 07:30:07;;;;;;;16.03;3.40;;;;;;;17.15;58.67;100751.09;126167;1101;23287;-62
2021/06/02 07:32:37;;;;;;;9.90;2.90;;;;;;;17.24;57.81;100756.45;126228;1101;22916;-59
2021/06/02 07:35:09;;;;;;;15.27;3.07;;;;;;;17.34;57.96;100759.81;126297;1101;22741;-61
2021/06/02 07:37:40;;;;;;;14.20;3.55;;;;;;;17.43;57.45;100759.53;126141;1097;26650;-60
2021/06/02 07:40:12;;;;;;;13.20;3.20;;;;;;;17.48;57.25;100751.08;126116;1096;22897;-59
2021/06/02 07:42:42;;;;;;;12.35;3.03;;;;;;;17.56;56.39;100760.59;126269;1096;25849;-59
2021/06/02 07:45:14;;;;;;;9.85;2.48;;;;;;;17.64;56.43;100758.00;126066;1101;22731;-60
2021/06/02 07:47:46;;;;;;;12.30;2.90;;;;;;;17.71;55.31;100751.84;126512;1101;22885;-58
2021/06/02 07:50:16;;;;;;;18.90;4.30;;;;;;;17.80;54.75;100771.31;125976;1096;27103;-58
2021/06/02 07:52:49;;;;;;;13.50;3.13;;;;;;;17.89;54.89;100758.98;126115;1101;22737;-60
2021/06/02 07:55:19;;;;;;;9.40;2.60;;;;;;;17.99;54.43;100755.36;126024;1101;22778;-61
2021/06/02 07:57:51;;;;;;;13.37;2.30;;;;;;;18.12;54.31;100757.63;126193;1096;25899;-62
2021/06/02 08:00:22;;;;;;;11.05;2.45;;;;;;;18.21;52.88;100758.09;126209;1101;22819;-61
2021/06/02 08:02:52;;;;;;;9.55;2.50;;;;;;;18.31;52.66;100767.81;126174;1097;22799;-59
2021/06/02 08:05:21;;;;;;;;;;;;;;;18.42;52.11;100758.52;126230;1104;24298;-58
2021/06/02 08:07:52;;;;;;;9.45;1.80;;;;;;;18.50;51.95;100763.14;126076;1101;21474;-62
2021/06/02 08:10:23;;;;;;;12.95;1.95;;;;;;;18.61;51.32;100767.97;125968;1096;25720;-61
2021/06/02 08:12:53;;;;;;;10.55;1.85;;;;;;;18.72;50.55;100767.92;126259;1101;22759;-59
2021/06/02 08:15:22;;;;;;;;;;;;;;;18.80;50.22;100773.78;126406;1101;22884;-59
2021/06/02 08:17:52;;;;;;;6.10;1.50;;;;;;;18.90;50.71;100772.17;125709;1101;21465;-61
2021/06/02 08:20:21;;;;;;;;;;;;;;;18.98;49.97;100768.27;125790;1096;26331;-61
2021/06/02 08:22:52;;;;;;;8.10;1.65;;;;;;;19.08;49.86;100775.13;126207;1101;22284;-60
2021/06/02 08:25:21;;;;;;;7.87;1.50;;;;;;;19.20;49.49;100773.00;126167;1101;22734;-59
2021/06/02 08:27:51;;;;;;;10.88;2.03;;;;;;;19.34;49.24;100774.72;126141;1101;22745;-61
2021/06/02 08:30:22;;;;;;;6.15;1.55;;;;;;;19.46;48.18;100761.22;126277;1101;22883;-61
2021/06/02 08:32:53;;;;;;;8.60;1.30;;;;;;;19.60;48.75;100763.66;126122;1101;23093;-60
2021/06/02 08:35:23;;;;;;;6.50;1.30;;;;;;;19.74;48.24;100767.41;126199;1097;22817;-61
2021/06/02 08:37:56;;;;;;;6.17;1.13;;;;;;;19.85;45.95;100770.88;126423;1101;22826;-62
2021/06/02 08:40:26;;;;;;;8.63;1.33;;;;;;;19.91;45.98;100776.48;126304;1101;23412;-59
2021/06/02 08:42:57;;;;;;;5.90;1.33;;;;;;;20.00;46.40;100773.30;126213;1101;24225;-62
2021/06/02 08:45:27;;;;;;;5.07;1.20;;;;;;;20.17;45.76;100777.47;126360;1101;22765;-60
2021/06/02 08:47:56;;;;;;;6.90;1.25;;;;;;;20.28;46.06;100770.94;126182;1101;22822;-60
2021/06/02 08:50:26;;;;;;;4.30;1.20;;;;;;;20.39;45.16;100767.20;125961;1096;25870;-61
2021/06/02 08:53:00;;;;;;;5.05;1.30;;;;;;;20.57;44.85;100770.05;125960;1101;22769;-59
2021/06/02 08:55:30;;;;;;;7.83;1.10;;;;;;;20.78;42.75;100773.12;126526;1096;22822;-61
2021/06/02 08:58:00;;;;;;;5.13;1.30;;;;;;;20.82;42.99;100773.57;126165;1101;22771;-61
2021/06/02 09:00:31;;;;;;;10.35;1.20;;;;;;;20.81;42.05;100777.73;125701;1101;22769;-60
2021/06/02 09:03:02;;;;;;;6.85;1.15;;;;;;;20.81;42.54;100769.98;126016;1097;22753;-61
2021/06/02 09:05:32;;;;;;;4.15;0.93;;;;;;;20.83;41.69;100780.80;126350;1101;25948;-61
2021/06/02 09:08:01;;;;;;;;;;;;;;;20.82;41.81;100780.02;127126;1101;22755;-62
2021/06/02 09:10:39;;;;;;;6.65;1.40;;;;;;;20.82;41.15;100782.09;126874;1101;23294;-60
2021/06/02 09:13:17;;;;;;;4.73;1.10;;;;;;;20.81;41.17;100778.50;125911;1101;24213;-61
2021/06/02 09:15:49;;;;;;;3.77;0.90;;;;;;;20.82;41.13;100782.09;126239;1101;22751;-59
2021/06/02 09:18:21;;;;;;;4.33;1.10;;;;;;;20.87;41.12;100781.25;126321;1101;22740;-59
2021/06/02 09:20:53;;;;;;;10.95;2.25;;;;;;;20.95;40.89;100776.48;126356;1101;23194;-61
2021/06/02 09:23:36;;;;;;;8.38;1.05;;;;;;;21.04;41.36;100776.13;126064;1097;22751;-63
2021/06/02 09:26:21;;;;;;;6.63;1.30;;;;;;;21.12;40.76;100782.72;126210;1101;25403;-59
2021/06/02 09:29:03;;;;;;;4.38;1.08;;;;;;;21.21;40.30;100781.55;126181;1097;22902;-62
2021/06/02 09:31:36;;;;;;;3.15;0.98;;;;;;;21.22;39.67;100771.71;126195;1097;25752;-62
2021/06/02 09:34:17;;;;;;;5.73;0.90;;;;;;;21.23;39.87;100778.94;126262;1101;22722;-62
2021/06/02 09:36:50;;;;;;;4.45;1.00;;;;;;;21.30;40.28;100776.22;126236;1101;22768;-61
2021/06/02 09:39:22;;;;;;;5.45;1.10;;;;;;;21.42;39.93;100777.56;126124;1101;22784;-64
2021/06/02 09:41:54;;;;;;;4.87;0.97;;;;;;;21.57;38.70;100777.06;126203;1096;25735;-62
2021/06/02 09:44:26;;;;;;;6.35;1.05;;;;;;;21.66;39.67;100783.08;126518;1101;22799;-58
2021/06/02 09:47:01;;;;;;;5.85;1.10;;;;;;;21.78;39.02;100785.73;126222;1101;22850;-60
2021/06/02 09:49:47;;;;;;;3.83;0.90;;;;;;;21.89;39.06;100782.73;126183;1101;22734;-61
2021/06/02 09:52:18;;;;;;;5.40;1.90;;;;;;;22.00;38.51;100776.81;126152;1101;22707;-60
2021/06/02 09:54:48;;;;;;;5.63;1.20;;;;;;;22.05;38.36;100771.04;126074;1101;22907;-57
2021/06/02 09:57:18;;;;;;;;;;;;;;;22.12;38.22;100783.84;126429;1101;24383;-59
2021/06/02 10:00:00;;;;;;;13.33;1.10;;;;;;;22.16;38.11;100779.33;126173;1101;21519;-61
2021/06/02 10:02:30;;;;;;;4.85;1.00;;;;;;;22.19;37.89;100783.94;126539;1101;22761;-63
2021/06/02 10:05:08;;;;;;;5.35;1.00;;;;;;;22.22;38.11;100782.83;126143;1101;22742;-61
2021/06/02 10:07:47;;;;;;;3.38;0.80;;;;;;;22.23;37.45;100789.28;126402;1101;22734;-62
2021/06/02 10:10:19;;;;;;;;;;;;;;;22.23;37.48;100787.22;126146;1101;22757;-68
2021/06/02 10:13:06;;;;;;;3.45;1.00;;;;;;;22.29;37.05;100784.25;126193;1101;21481;-62
2021/06/02 10:15:39;;;;;;;5.23;1.00;;;;;;;22.32;37.35;100781.09;126270;1097;27129;-63
2021/06/02 10:18:25;;;;;;;5.20;1.00;;;;;;;22.32;36.77;100775.41;126040;1101;22738;-59
2021/06/02 10:21:00;;;;;;;7.10;1.58;;;;;;;22.30;36.60;100782.95;125900;1097;27412;-61
2021/06/02 10:23:36;;;;;;;4.77;0.90;;;;;;;22.26;36.27;100776.83;126018;1101;22777;-60
2021/06/02 10:26:08;;;;;;;5.53;1.10;;;;;;;22.25;36.24;100784.59;125936;1101;22745;-59
2021/06/02 10:28:41;;;;;;;4.45;0.98;;;;;;;22.30;36.16;100780.11;125963;1101;22873;-60
2021/06/02 10:31:12;;;;;;;4.20;1.00;;;;;;;22.39;35.94;100779.64;125840;1101;22813;-59
2021/06/02 10:33:42;;;;;;;5.43;1.00;;;;;;;22.47;36.11;100789.07;125913;1097;26859;-60
2021/06/02 10:36:13;;;;;;;5.23;1.00;;;;;;;22.51;36.10;100793.09;125871;1101;22835;-60
2021/06/02 10:38:47;;;;;;;7.05;1.10;;;;;;;22.49;35.75;100787.19;126084;1101;22884;-59
2021/06/02 10:41:28;;;;;;;6.67;1.00;;;;;;;22.50;35.98;100782.27;125985;1101;22768;-60
2021/06/02 10:44:05;;;;;;;4.35;0.85;;;;;;;22.54;35.48;100785.54;126103;1101;22803;-61
2021/06/02 10:46:39;;;;;;;4.80;0.73;;;;;;;22.57;34.91;100777.98;126357;1101;22737;-59
2021/06/02 10:49:09;;;;;;;4.20;0.80;;;;;;;22.58;34.68;100786.00;126431;1101;23519;-62
2021/06/02 10:51:44;;;;;;;6.00;0.90;;;;;;;22.60;35.44;100782.59;126147;1101;24444;-58
2021/06/02 10:54:16;;;;;;;2.60;0.80;;;;;;;22.63;35.16;100787.20;125931;1097;22737;-59
2021/06/02 10:57:09;;;;;;;5.15;0.95;;;;;;;22.63;34.55;100782.28;125875;1101;22741;-58
2021/06/02 10:59:40;;;;;;;6.73;0.88;;;;;;;22.65;34.85;100784.57;125869;1101;22768;-59
2021/06/02 11:02:12;;;;;;;6.58;0.90;;;;;;;22.68;34.63;100774.94;125718;1101;22768;-59
2021/06/02 11:05:04;;;;;;;2.80;0.85;;;;;;;22.67;34.25;100788.41;126149;1097;22755;-60
2021/06/02 11:07:36;;;;;;;2.83;0.80;;;;;;;22.67;34.45;100774.17;126516;1101;22830;-62
2021/06/02 11:10:12;;;;;;;2.90;1.20;;;;;;;22.68;34.22;100787.07;125826;1096;22757;-59
2021/06/02 11:13:03;;;;;;;6.55;1.00;;;;;;;22.73;34.58;100780.50;126070;1097;22761;-59
2021/06/02 11:15:47;;;;;;;7.93;1.18;;;;;;;22.74;33.93;100787.71;125827;1101;22730;-60
2021/06/02 11:18:25;;;;;;;2.70;0.80;;;;;;;22.66;33.56;100780.42;125881;1101;22967;-59
2021/06/02 11:20:58;;;;;;;6.43;1.00;;;;;;;22.59;33.17;100776.16;126122;1097;28486;-60
2021/06/02 11:23:33;;;;;;;5.43;0.90;;;;;;;22.51;33.34;100776.02;125710;1096;25865;-59
2021/06/02 11:26:24;;;;;;;3.55;0.90;;;;;;;22.48;33.31;100773.52;125921;1101;22762;-59
2021/06/02 11:28:55;;;;;;;4.65;0.85;;;;;;;22.50;33.47;100774.50;125778;1096;28432;-59
2021/06/02 11:31:27;;;;;;;4.60;0.70;;;;;;;22.55;33.49;100778.55;126031;1096;22734;-60
2021/06/02 11:34:32;;;;;;;6.08;1.00;;;;;;;22.58;33.80;100766.08;126168;1097;22751;-59
2021/06/02 11:37:04;;;;;;;3.65;0.80;;;;;;;22.66;34.08;100780.42;126004;1101;22775;-59
2021/06/02 11:39:40;;;;;;;4.85;0.90;;;;;;;22.75;34.10;100769.33;126032;1101;22757;-59
2021/06/02 11:42:11;;;;;;;5.00;1.10;;;;;;;22.80;33.44;100776.96;125921;1101;22765;-59
2021/06/02 11:44:48;;;;;;;4.53;0.88;;;;;;;22.84;33.82;100774.57;125763;1101;22753;-58
2021/06/02 11:47:20;;;;;;;4.35;0.90;;;;;;;22.85;33.59;100787.47;125638;1102;22764;-59
2021/06/02 11:49:52;;;;;;;3.55;0.80;;;;;;;22.85;33.26;100781.78;125948;1101;22768;-59
2021/06/02 11:52:22;;;;;;;3.93;0.70;;;;;;;22.81;33.23;100786.27;125863;1101;22735;-59
2021/06/02 11:54:54;;;;;;;3.00;0.80;;;;;;;22.83;32.96;100781.56;125825;1097;26320;-60
2021/06/02 11:57:27;;;;;;;4.43;1.03;;;;;;;22.82;32.73;100780.05;126123;1102;22768;-60
2021/06/02 12:00:00;;;;;;;4.73;1.40;;;;;;;22.82;33.30;100777.20;126131;1101;24557;-59
2021/06/02 12:02:30;;;;;;;3.70;0.85;;;;;;;22.82;33.31;100780.05;126352;1096;26350;-59
2021/06/02 12:05:15;;;;;;;3.08;0.90;;;;;;;22.83;32.30;100784.41;125546;1096;25881;-59
2021/06/02 12:07:49;;;;;;;4.90;1.43;;;;;;;22.76;33.15;100790.03;125755;1101;22809;-59
2021/06/02 12:10:19;;;;;;;4.20;0.80;;;;;;;22.70;33.33;100775.90;125792;1101;22742;-60
2021/06/02 12:12:52;;;;;;;4.23;1.00;;;;;;;22.65;33.00;100785.34;125936;1101;24439;-60